sensor_id;sensor_type;location;lat;lon;timestamp;pressure;altitude;pressure_sealevel;temperature;humidity
63306;BME280;50735;52.060;1.248;2022-07-18T00:01:41;102026.83;;;19.45;45.05
63306;BME280;50735;52.060;1.248;2022-07-18T00:04:08;102022.75;;;19.48;45.33
63306;BME280;50735;52.060;1.248;2022-07-18T00:06:36;102018.38;;;19.48;44.97
63306;BME280;50735;52.060;1.248;2022-07-18T00:09:03;102015.85;;;19.46;45.68
63306;BME280;50735;52.060;1.248;2022-07-18T00:11:30;102014.79;;;19.44;45.68
63306;BME280;50735;52.060;1.248;2022-07-18T00:13:57;102006.03;;;19.22;45.98
63306;BME280;50735;52.060;1.248;2022-07-18T00:16:25;102003.69;;;19.14;45.61
63306;BME280;50735;52.060;1.248;2022-07-18T00:18:52;102000.02;;;18.95;46.71
63306;BME280;50735;52.060;1.248;2022-07-18T00:21:20;101999.03;;;18.77;47.12
63306;BME280;50735;52.060;1.248;2022-07-18T00:23:47;101994.89;;;18.84;46.83
63306;BME280;50735;52.060;1.248;2022-07-18T00:26:13;101996.87;;;18.97;46.03
63306;BME280;50735;52.060;1.248;2022-07-18T00:28:41;101996.95;;;19.14;45.47
63306;BME280;50735;52.060;1.248;2022-07-18T00:31:08;101991.02;;;19.26;45.81
63306;BME280;50735;52.060;1.248;2022-07-18T00:33:35;101988.42;;;19.57;45.49
63306;BME280;50735;52.060;1.248;2022-07-18T00:36:02;101984.08;;;19.09;45.66
63306;BME280;50735;52.060;1.248;2022-07-18T00:38:29;101986.99;;;19.26;45.80
63306;BME280;50735;52.060;1.248;2022-07-18T00:40:56;101983.62;;;19.18;46.16
63306;BME280;50735;52.060;1.248;2022-07-18T00:43:24;101989.05;;;19.19;45.63
63306;BME280;50735;52.060;1.248;2022-07-18T00:45:51;101984.65;;;19.41;46.40
63306;BME280;50735;52.060;1.248;2022-07-18T00:48:19;101978.68;;;18.87;47.21
63306;BME280;50735;52.060;1.248;2022-07-18T00:50:47;101972.23;;;18.73;47.44
63306;BME280;50735;52.060;1.248;2022-07-18T00:53:15;101968.41;;;18.72;47.60
63306;BME280;50735;52.060;1.248;2022-07-18T00:55:44;101969.86;;;18.79;47.97
63306;BME280;50735;52.060;1.248;2022-07-18T00:58:12;101972.24;;;18.73;47.99
63306;BME280;50735;52.060;1.248;2022-07-18T01:00:41;101971.98;;;18.51;47.77
63306;BME280;50735;52.060;1.248;2022-07-18T01:03:08;101967.40;;;18.60;47.54
63306;BME280;50735;52.060;1.248;2022-07-18T01:05:36;101967.53;;;19.10;47.55
63306;BME280;50735;52.060;1.248;2022-07-18T01:08:04;101964.94;;;18.96;47.48
63306;BME280;50735;52.060;1.248;2022-07-18T01:10:30;101966.95;;;18.93;47.15
63306;BME280;50735;52.060;1.248;2022-07-18T01:12:58;101963.71;;;18.70;47.82
63306;BME280;50735;52.060;1.248;2022-07-18T01:15:25;101959.05;;;18.64;48.04
63306;BME280;50735;52.060;1.248;2022-07-18T01:17:52;101961.42;;;18.67;47.93
63306;BME280;50735;52.060;1.248;2022-07-18T01:20:20;101958.83;;;18.72;47.92
63306;BME280;50735;52.060;1.248;2022-07-18T01:22:47;101957.98;;;18.65;48.52
63306;BME280;50735;52.060;1.248;2022-07-18T01:25:14;101951.87;;;18.62;48.25
63306;BME280;50735;52.060;1.248;2022-07-18T01:27:41;101952.66;;;18.41;48.17
63306;BME280;50735;52.060;1.248;2022-07-18T01:30:09;101955.70;;;18.37;48.60
63306;BME280;50735;52.060;1.248;2022-07-18T01:32:36;101956.68;;;18.60;48.22
63306;BME280;50735;52.060;1.248;2022-07-18T01:35:05;101953.57;;;18.34;48.92
63306;BME280;50735;52.060;1.248;2022-07-18T01:37:32;101951.79;;;18.27;48.99
63306;BME280;50735;52.060;1.248;2022-07-18T01:39:59;101952.44;;;18.38;48.71
63306;BME280;50735;52.060;1.248;2022-07-18T01:42:26;101948.79;;;18.64;48.20
63306;BME280;50735;52.060;1.248;2022-07-18T01:44:53;101948.45;;;18.80;48.14
63306;BME280;50735;52.060;1.248;2022-07-18T01:47:20;101946.71;;;18.72;47.47
63306;BME280;50735;52.060;1.248;2022-07-18T01:49:47;101946.09;;;19.19;47.09
63306;BME280;50735;52.060;1.248;2022-07-18T01:52:14;101945.00;;;19.06;47.07
63306;BME280;50735;52.060;1.248;2022-07-18T01:54:41;101942.77;;;18.90;46.79
63306;BME280;50735;52.060;1.248;2022-07-18T01:57:09;101936.60;;;19.14;46.70
63306;BME280;50735;52.060;1.248;2022-07-18T01:59:36;101933.85;;;19.18;47.02
63306;BME280;50735;52.060;1.248;2022-07-18T02:02:04;101934.68;;;19.37;48.09
63306;BME280;50735;52.060;1.248;2022-07-18T02:04:31;101933.22;;;19.32;47.14
63306;BME280;50735;52.060;1.248;2022-07-18T02:06:58;101929.11;;;19.19;47.49
63306;BME280;50735;52.060;1.248;2022-07-18T02:09:25;101928.68;;;18.95;47.32
63306;BME280;50735;52.060;1.248;2022-07-18T02:11:51;101928.88;;;18.97;47.92
63306;BME280;50735;52.060;1.248;2022-07-18T02:14:19;101924.43;;;18.95;47.22
63306;BME280;50735;52.060;1.248;2022-07-18T02:16:45;101923.09;;;19.15;47.26
63306;BME280;50735;52.060;1.248;2022-07-18T02:19:13;101923.30;;;19.15;47.30
63306;BME280;50735;52.060;1.248;2022-07-18T02:21:39;101919.47;;;18.75;47.47
63306;BME280;50735;52.060;1.248;2022-07-18T02:24:07;101917.89;;;18.98;48.67
63306;BME280;50735;52.060;1.248;2022-07-18T02:26:33;101919.60;;;19.12;47.55
63306;BME280;50735;52.060;1.248;2022-07-18T02:29:01;101921.72;;;19.13;47.56
63306;BME280;50735;52.060;1.248;2022-07-18T02:31:28;101922.94;;;18.98;47.68
63306;BME280;50735;52.060;1.248;2022-07-18T02:33:54;101928.72;;;18.96;47.67
63306;BME280;50735;52.060;1.248;2022-07-18T02:36:21;101928.27;;;19.14;48.15
63306;BME280;50735;52.060;1.248;2022-07-18T02:38:48;101932.98;;;18.95;47.72
63306;BME280;50735;52.060;1.248;2022-07-18T02:41:16;101935.08;;;19.09;47.59
63306;BME280;50735;52.060;1.248;2022-07-18T02:43:43;101933.71;;;18.85;47.48
63306;BME280;50735;52.060;1.248;2022-07-18T02:46:10;101928.15;;;18.81;47.47
63306;BME280;50735;52.060;1.248;2022-07-18T02:48:37;101921.79;;;18.77;47.66
63306;BME280;50735;52.060;1.248;2022-07-18T02:51:03;101918.03;;;18.53;47.89
63306;BME280;50735;52.060;1.248;2022-07-18T02:53:31;101918.09;;;18.89;47.79
63306;BME280;50735;52.060;1.248;2022-07-18T02:55:57;101919.05;;;18.67;47.61
63306;BME280;50735;52.060;1.248;2022-07-18T02:58:24;101919.43;;;18.80;47.55
63306;BME280;50735;52.060;1.248;2022-07-18T03:00:51;101919.28;;;18.76;47.54
63306;BME280;50735;52.060;1.248;2022-07-18T03:03:19;101918.65;;;18.72;47.48
63306;BME280;50735;52.060;1.248;2022-07-18T03:05:45;101919.32;;;18.66;47.43
63306;BME280;50735;52.060;1.248;2022-07-18T03:08:12;101921.85;;;18.61;47.42
63306;BME280;50735;52.060;1.248;2022-07-18T03:10:40;101924.95;;;18.37;47.52
63306;BME280;50735;52.060;1.248;2022-07-18T03:13:07;101927.27;;;18.48;47.66
63306;BME280;50735;52.060;1.248;2022-07-18T03:15:35;101925.58;;;18.38;48.09
63306;BME280;50735;52.060;1.248;2022-07-18T03:18:02;101927.87;;;18.29;47.90
63306;BME280;50735;52.060;1.248;2022-07-18T03:20:29;101922.63;;;18.19;48.43
63306;BME280;50735;52.060;1.248;2022-07-18T03:22:57;101924.24;;;18.30;47.69
63306;BME280;50735;52.060;1.248;2022-07-18T03:25:24;101920.57;;;18.00;47.69
63306;BME280;50735;52.060;1.248;2022-07-18T03:27:51;101915.91;;;17.93;47.59
63306;BME280;50735;52.060;1.248;2022-07-18T03:30:18;101911.53;;;17.87;47.57
63306;BME280;50735;52.060;1.248;2022-07-18T03:32:45;101912.67;;;17.81;47.75
63306;BME280;50735;52.060;1.248;2022-07-18T03:35:13;101910.17;;;17.78;47.71
63306;BME280;50735;52.060;1.248;2022-07-18T03:37:40;101910.58;;;17.97;47.64
63306;BME280;50735;52.060;1.248;2022-07-18T03:40:08;101908.95;;;17.71;47.72
63306;BME280;50735;52.060;1.248;2022-07-18T03:42:36;101904.99;;;17.68;47.67
63306;BME280;50735;52.060;1.248;2022-07-18T03:45:04;101903.71;;;17.66;47.77
63306;BME280;50735;52.060;1.248;2022-07-18T03:47:31;101902.05;;;17.65;47.71
63306;BME280;50735;52.060;1.248;2022-07-18T03:49:59;101900.68;;;17.86;47.70
63306;BME280;50735;52.060;1.248;2022-07-18T03:52:25;101898.05;;;17.84;47.70
63306;BME280;50735;52.060;1.248;2022-07-18T03:54:53;101895.28;;;17.60;47.60
63306;BME280;50735;52.060;1.248;2022-07-18T03:57:19;101894.39;;;17.81;47.55
63306;BME280;50735;52.060;1.248;2022-07-18T03:59:46;101893.75;;;17.80;47.60
63306;BME280;50735;52.060;1.248;2022-07-18T04:02:13;101892.93;;;17.81;47.57
63306;BME280;50735;52.060;1.248;2022-07-18T04:04:40;101890.58;;;17.57;47.57
63306;BME280;50735;52.060;1.248;2022-07-18T04:07:07;101888.17;;;17.96;47.57
63306;BME280;50735;52.060;1.248;2022-07-18T04:09:35;101884.92;;;17.77;47.63
63306;BME280;50735;52.060;1.248;2022-07-18T04:12:03;101883.45;;;17.74;47.68
63306;BME280;50735;52.060;1.248;2022-07-18T04:14:30;101878.07;;;17.49;47.70
63306;BME280;50735;52.060;1.248;2022-07-18T04:16:57;101880.30;;;17.89;47.63
63306;BME280;50735;52.060;1.248;2022-07-18T04:19:24;101879.33;;;17.69;47.68
63306;BME280;50735;52.060;1.248;2022-07-18T04:21:51;101878.17;;;17.86;47.67
63306;BME280;50735;52.060;1.248;2022-07-18T04:24:18;101875.45;;;17.67;47.67
63306;BME280;50735;52.060;1.248;2022-07-18T04:26:45;101873.72;;;17.67;47.64
63306;BME280;50735;52.060;1.248;2022-07-18T04:29:11;101875.73;;;17.65;47.62
63306;BME280;50735;52.060;1.248;2022-07-18T04:31:38;101873.84;;;17.81;47.66
63306;BME280;50735;52.060;1.248;2022-07-18T04:34:05;101865.52;;;17.60;47.65
63306;BME280;50735;52.060;1.248;2022-07-18T04:36:33;101867.21;;;17.77;47.86
63306;BME280;50735;52.060;1.248;2022-07-18T04:39:00;101863.41;;;17.37;47.78
63306;BME280;50735;52.060;1.248;2022-07-18T04:41:27;101862.70;;;17.57;47.98
63306;BME280;50735;52.060;1.248;2022-07-18T04:43:54;101862.63;;;17.78;48.42
63306;BME280;50735;52.060;1.248;2022-07-18T04:46:20;101860.93;;;17.57;48.30
63306;BME280;50735;52.060;1.248;2022-07-18T04:48:48;101860.96;;;17.34;48.25
63306;BME280;50735;52.060;1.248;2022-07-18T04:51:14;101860.27;;;17.73;48.44
63306;BME280;50735;52.060;1.248;2022-07-18T04:53:42;101855.73;;;17.55;48.52
63306;BME280;50735;52.060;1.248;2022-07-18T04:56:09;101854.92;;;17.57;48.56
63306;BME280;50735;52.060;1.248;2022-07-18T04:58:36;101852.82;;;17.37;48.65
63306;BME280;50735;52.060;1.248;2022-07-18T05:01:03;101849.90;;;17.78;48.67
63306;BME280;50735;52.060;1.248;2022-07-18T05:03:30;101850.47;;;17.64;48.82
63306;BME280;50735;52.060;1.248;2022-07-18T05:05:57;101847.92;;;17.87;48.88
63306;BME280;50735;52.060;1.248;2022-07-18T05:08:24;101847.69;;;17.53;49.02
63306;BME280;50735;52.060;1.248;2022-07-18T05:10:52;101847.31;;;18.00;49.01
63306;BME280;50735;52.060;1.248;2022-07-18T05:13:19;101845.69;;;17.89;49.03
63306;BME280;50735;52.060;1.248;2022-07-18T05:15:46;101846.11;;;17.77;49.10
63306;BME280;50735;52.060;1.248;2022-07-18T05:18:14;101846.71;;;18.11;49.38
63306;BME280;50735;52.060;1.248;2022-07-18T05:20:41;101848.72;;;18.19;49.02
63306;BME280;50735;52.060;1.248;2022-07-18T05:23:08;101849.40;;;18.09;49.12
63306;BME280;50735;52.060;1.248;2022-07-18T05:25:36;101850.87;;;18.20;49.28
63306;BME280;50735;52.060;1.248;2022-07-18T05:28:03;101851.13;;;18.30;49.40
63306;BME280;50735;52.060;1.248;2022-07-18T05:30:30;101852.15;;;18.44;49.95
63306;BME280;50735;52.060;1.248;2022-07-18T05:32:58;101850.97;;;18.55;50.61
63306;BME280;50735;52.060;1.248;2022-07-18T05:35:24;101850.38;;;18.64;50.58
63306;BME280;50735;52.060;1.248;2022-07-18T05:37:51;101848.21;;;18.67;50.54
63306;BME280;50735;52.060;1.248;2022-07-18T05:40:19;101845.20;;;18.74;50.46
63306;BME280;50735;52.060;1.248;2022-07-18T05:42:46;101844.77;;;18.62;50.47
63306;BME280;50735;52.060;1.248;2022-07-18T05:45:13;101846.75;;;18.87;51.00
63306;BME280;50735;52.060;1.248;2022-07-18T05:47:40;101847.04;;;18.75;49.89
63306;BME280;50735;52.060;1.248;2022-07-18T05:50:08;101843.49;;;19.03;50.06
63306;BME280;50735;52.060;1.248;2022-07-18T05:52:36;101844.54;;;19.09;49.84
63306;BME280;50735;52.060;1.248;2022-07-18T05:55:04;101846.51;;;18.96;50.02
63306;BME280;50735;52.060;1.248;2022-07-18T05:57:31;101843.55;;;19.30;50.25
63306;BME280;50735;52.060;1.248;2022-07-18T05:59:58;101843.09;;;19.24;49.11
63306;BME280;50735;52.060;1.248;2022-07-18T06:02:25;101840.28;;;19.35;49.43
63306;BME280;50735;52.060;1.248;2022-07-18T06:04:52;101839.62;;;19.44;49.37
63306;BME280;50735;52.060;1.248;2022-07-18T06:07:19;101835.63;;;19.25;49.20
63306;BME280;50735;52.060;1.248;2022-07-18T06:09:46;101830.22;;;19.56;48.98
63306;BME280;50735;52.060;1.248;2022-07-18T06:12:15;101824.28;;;19.67;48.78
63306;BME280;50735;52.060;1.248;2022-07-18T06:14:42;101821.65;;;19.51;48.43
63306;BME280;50735;52.060;1.248;2022-07-18T06:17:10;101820.77;;;19.60;48.12
63306;BME280;50735;52.060;1.248;2022-07-18T06:19:37;101818.06;;;19.62;48.08
63306;BME280;50735;52.060;1.248;2022-07-18T06:22:05;101815.93;;;19.69;47.63
63306;BME280;50735;52.060;1.248;2022-07-18T06:24:32;101816.54;;;19.87;47.16
63306;BME280;50735;52.060;1.248;2022-07-18T06:26:59;101814.53;;;19.94;46.74
63306;BME280;50735;52.060;1.248;2022-07-18T06:29:26;101815.19;;;19.66;46.58
63306;BME280;50735;52.060;1.248;2022-07-18T06:31:53;101813.15;;;19.60;46.91
63306;BME280;50735;52.060;1.248;2022-07-18T06:34:20;101809.63;;;20.06;46.33
63306;BME280;50735;52.060;1.248;2022-07-18T06:36:47;101809.79;;;20.07;45.69
63306;BME280;50735;52.060;1.248;2022-07-18T06:39:14;101812.73;;;20.35;45.76
63306;BME280;50735;52.060;1.248;2022-07-18T06:41:42;101814.99;;;20.39;45.21
63306;BME280;50735;52.060;1.248;2022-07-18T06:44:09;101817.87;;;20.39;44.95
63306;BME280;50735;52.060;1.248;2022-07-18T06:46:36;101821.40;;;20.74;44.69
63306;BME280;50735;52.060;1.248;2022-07-18T06:49:04;101820.34;;;20.70;43.98
63306;BME280;50735;52.060;1.248;2022-07-18T06:51:32;101821.72;;;20.84;43.86
63306;BME280;50735;52.060;1.248;2022-07-18T06:54:00;101821.46;;;21.12;43.67
63306;BME280;50735;52.060;1.248;2022-07-18T06:56:27;101821.53;;;21.37;43.01
63306;BME280;50735;52.060;1.248;2022-07-18T06:58:54;101820.21;;;21.55;42.32
63306;BME280;50735;52.060;1.248;2022-07-18T07:01:23;101821.20;;;21.28;41.13
63306;BME280;50735;52.060;1.248;2022-07-18T07:03:50;101823.13;;;21.75;41.74
63306;BME280;50735;52.060;1.248;2022-07-18T07:06:17;101822.30;;;21.77;40.68
63306;BME280;50735;52.060;1.248;2022-07-18T07:08:45;101818.55;;;21.88;40.35
63306;BME280;50735;52.060;1.248;2022-07-18T07:11:13;101822.50;;;21.90;39.88
63306;BME280;50735;52.060;1.248;2022-07-18T07:13:40;101819.47;;;22.35;39.18
63306;BME280;50735;52.060;1.248;2022-07-18T07:16:08;101819.95;;;22.64;37.30
63306;BME280;50735;52.060;1.248;2022-07-18T07:18:34;101820.49;;;22.79;37.04
63306;BME280;50735;52.060;1.248;2022-07-18T07:21:02;101822.63;;;23.03;36.73
63306;BME280;50735;52.060;1.248;2022-07-18T07:23:29;101822.14;;;23.23;36.36
63306;BME280;50735;52.060;1.248;2022-07-18T07:25:57;101821.39;;;23.39;36.58
63306;BME280;50735;52.060;1.248;2022-07-18T07:28:24;101817.42;;;23.09;35.01
63306;BME280;50735;52.060;1.248;2022-07-18T07:30:51;101817.97;;;23.35;34.93
63306;BME280;50735;52.060;1.248;2022-07-18T07:33:18;101819.96;;;23.37;34.62
63306;BME280;50735;52.060;1.248;2022-07-18T07:35:46;101821.33;;;23.19;34.27
63306;BME280;50735;52.060;1.248;2022-07-18T07:38:13;101820.01;;;23.45;34.22
63306;BME280;50735;52.060;1.248;2022-07-18T07:40:40;101820.57;;;23.76;34.17
63306;BME280;50735;52.060;1.248;2022-07-18T07:43:10;101814.63;;;23.90;33.47
63306;BME280;50735;52.060;1.248;2022-07-18T07:45:38;101810.83;;;24.13;33.56
63306;BME280;50735;52.060;1.248;2022-07-18T07:48:06;101811.27;;;24.12;33.50
63306;BME280;50735;52.060;1.248;2022-07-18T07:50:34;101810.54;;;24.30;32.92
63306;BME280;50735;52.060;1.248;2022-07-18T07:53:01;101809.82;;;24.43;33.10
63306;BME280;50735;52.060;1.248;2022-07-18T07:55:28;101806.91;;;24.29;32.22
63306;BME280;50735;52.060;1.248;2022-07-18T07:57:56;101801.01;;;24.60;32.45
63306;BME280;50735;52.060;1.248;2022-07-18T08:00:23;101802.47;;;24.42;31.64
63306;BME280;50735;52.060;1.248;2022-07-18T08:02:52;101800.88;;;24.90;31.49
63306;BME280;50735;52.060;1.248;2022-07-18T08:05:21;101794.44;;;25.10;31.66
63306;BME280;50735;52.060;1.248;2022-07-18T08:07:49;101792.05;;;25.21;30.36
63306;BME280;50735;52.060;1.248;2022-07-18T08:10:17;101790.69;;;24.85;29.33
63306;BME280;50735;52.060;1.248;2022-07-18T08:12:44;101790.13;;;25.25;29.14
63306;BME280;50735;52.060;1.248;2022-07-18T08:15:11;101783.24;;;25.82;29.67
63306;BME280;50735;52.060;1.248;2022-07-18T08:17:38;101785.23;;;26.22;28.25
63306;BME280;50735;52.060;1.248;2022-07-18T08:20:07;101788.50;;;26.50;28.22
63306;BME280;50735;52.060;1.248;2022-07-18T08:22:34;101786.16;;;26.77;26.89
63306;BME280;50735;52.060;1.248;2022-07-18T08:25:02;101786.92;;;27.17;27.02
63306;BME280;50735;52.060;1.248;2022-07-18T08:27:29;101787.14;;;26.88;27.06
63306;BME280;50735;52.060;1.248;2022-07-18T08:29:57;101782.56;;;27.34;26.98
63306;BME280;50735;52.060;1.248;2022-07-18T08:32:23;101781.30;;;27.63;26.72
63306;BME280;50735;52.060;1.248;2022-07-18T08:34:50;101777.85;;;27.98;27.11
63306;BME280;50735;52.060;1.248;2022-07-18T08:37:18;101777.61;;;28.21;26.23
63306;BME280;50735;52.060;1.248;2022-07-18T08:39:45;101772.61;;;28.86;25.82
63306;BME280;50735;52.060;1.248;2022-07-18T08:42:13;101772.14;;;28.97;24.39
63306;BME280;50735;52.060;1.248;2022-07-18T08:44:41;101770.19;;;28.73;24.28
63306;BME280;50735;52.060;1.248;2022-07-18T08:47:09;101768.27;;;28.67;24.34
63306;BME280;50735;52.060;1.248;2022-07-18T08:49:37;101770.58;;;29.02;23.10
63306;BME280;50735;52.060;1.248;2022-07-18T08:52:05;101767.01;;;29.38;23.74
63306;BME280;50735;52.060;1.248;2022-07-18T08:54:32;101764.60;;;29.48;23.98
63306;BME280;50735;52.060;1.248;2022-07-18T08:57:00;101763.21;;;29.44;23.89
63306;BME280;50735;52.060;1.248;2022-07-18T08:59:27;101758.94;;;29.81;23.08
63306;BME280;50735;52.060;1.248;2022-07-18T09:01:54;101758.43;;;29.90;23.14
63306;BME280;50735;52.060;1.248;2022-07-18T09:04:39;101754.70;;;30.16;23.08
63306;BME280;50735;52.060;1.248;2022-07-18T09:07:07;101761.81;;;30.92;23.07
63306;BME280;50735;52.060;1.248;2022-07-18T09:09:35;101759.01;;;30.30;23.45
63306;BME280;50735;52.060;1.248;2022-07-18T09:12:04;101758.81;;;31.12;23.30
63306;BME280;50735;52.060;1.248;2022-07-18T09:14:34;101754.42;;;31.44;23.17
63306;BME280;50735;52.060;1.248;2022-07-18T09:17:04;101752.40;;;31.75;22.67
63306;BME280;50735;52.060;1.248;2022-07-18T09:19:31;101750.90;;;31.79;22.30
63306;BME280;50735;52.060;1.248;2022-07-18T09:22:16;101752.38;;;32.51;22.32
63306;BME280;50735;52.060;1.248;2022-07-18T09:24:54;101748.07;;;32.27;20.72
63306;BME280;50735;52.060;1.248;2022-07-18T09:27:24;101745.06;;;32.24;21.74
63306;BME280;50735;52.060;1.248;2022-07-18T09:30:08;101743.95;;;32.75;21.76
63306;BME280;50735;52.060;1.248;2022-07-18T09:32:37;101741.45;;;32.64;22.15
63306;BME280;50735;52.060;1.248;2022-07-18T09:35:05;101742.11;;;32.71;22.18
63306;BME280;50735;52.060;1.248;2022-07-18T09:37:31;101744.36;;;32.81;21.96
63306;BME280;50735;52.060;1.248;2022-07-18T09:40:14;101741.87;;;32.92;21.45
63306;BME280;50735;52.060;1.248;2022-07-18T09:42:41;101744.68;;;33.14;21.70
63306;BME280;50735;52.060;1.248;2022-07-18T09:45:09;101740.86;;;33.07;21.34
63306;BME280;50735;52.060;1.248;2022-07-18T09:47:49;101742.21;;;32.99;21.43
63306;BME280;50735;52.060;1.248;2022-07-18T09:50:22;101744.40;;;33.40;21.24
63306;BME280;50735;52.060;1.248;2022-07-18T09:53:00;101741.24;;;33.57;20.70
63306;BME280;50735;52.060;1.248;2022-07-18T09:55:28;101743.37;;;33.44;20.56
63306;BME280;50735;52.060;1.248;2022-07-18T09:57:57;101742.37;;;33.39;20.38
63306;BME280;50735;52.060;1.248;2022-07-18T10:00:25;101740.26;;;33.16;19.46
63306;BME280;50735;52.060;1.248;2022-07-18T10:02:54;101737.50;;;33.56;19.44
63306;BME280;50735;52.060;1.248;2022-07-18T10:05:21;101736.33;;;33.94;20.12
63306;BME280;50735;52.060;1.248;2022-07-18T10:07:48;101737.73;;;34.02;20.26
63306;BME280;50735;52.060;1.248;2022-07-18T10:10:16;101731.66;;;33.76;19.74
63306;BME280;50735;52.060;1.248;2022-07-18T10:12:44;101734.78;;;33.64;19.80
63306;BME280;50735;52.060;1.248;2022-07-18T10:15:11;101738.45;;;34.01;20.38
63306;BME280;50735;52.060;1.248;2022-07-18T10:17:38;101737.63;;;34.07;20.07
63306;BME280;50735;52.060;1.248;2022-07-18T10:20:07;101732.89;;;33.93;19.84
63306;BME280;50735;52.060;1.248;2022-07-18T10:22:36;101735.87;;;33.53;20.44
63306;BME280;50735;52.060;1.248;2022-07-18T10:25:06;101734.60;;;33.49;20.67
63306;BME280;50735;52.060;1.248;2022-07-18T10:27:48;101734.31;;;33.59;20.44
63306;BME280;50735;52.060;1.248;2022-07-18T10:30:17;101728.84;;;34.12;20.52
63306;BME280;50735;52.060;1.248;2022-07-18T10:32:45;101725.28;;;34.14;20.45
63306;BME280;50735;52.060;1.248;2022-07-18T10:35:15;101729.50;;;33.94;21.05
63306;BME280;50735;52.060;1.248;2022-07-18T10:37:42;101729.82;;;33.81;20.48
63306;BME280;50735;52.060;1.248;2022-07-18T10:40:27;101728.49;;;33.49;20.72
63306;BME280;50735;52.060;1.248;2022-07-18T10:43:59;101722.06;;;34.30;20.33
63306;BME280;50735;52.060;1.248;2022-07-18T10:47:03;101720.19;;;34.56;19.61
63306;BME280;50735;52.060;1.248;2022-07-18T10:50:00;101721.21;;;34.73;19.65
63306;BME280;50735;52.060;1.248;2022-07-18T10:53:00;101714.26;;;34.82;19.77
63306;BME280;50735;52.060;1.248;2022-07-18T10:55:29;101713.10;;;34.49;19.49
63306;BME280;50735;52.060;1.248;2022-07-18T10:58:28;101708.33;;;34.71;19.66
63306;BME280;50735;52.060;1.248;2022-07-18T11:01:06;101705.43;;;34.87;19.40
63306;BME280;50735;52.060;1.248;2022-07-18T11:03:36;101703.52;;;34.98;18.99
63306;BME280;50735;52.060;1.248;2022-07-18T11:06:04;101698.54;;;34.95;18.72
63306;BME280;50735;52.060;1.248;2022-07-18T11:08:31;101699.16;;;34.87;19.32
63306;BME280;50735;52.060;1.248;2022-07-18T11:11:08;101699.84;;;34.08;18.70
63306;BME280;50735;52.060;1.248;2022-07-18T11:13:36;101697.22;;;34.19;19.58
63306;BME280;50735;52.060;1.248;2022-07-18T11:16:04;101700.37;;;34.62;19.20
63306;BME280;50735;52.060;1.248;2022-07-18T11:19:17;101703.21;;;34.82;19.01
63306;BME280;50735;52.060;1.248;2022-07-18T11:21:44;101704.06;;;33.57;19.62
63306;BME280;50735;52.060;1.248;2022-07-18T11:24:11;101698.21;;;33.98;19.92
63306;BME280;50735;52.060;1.248;2022-07-18T11:26:43;101699.91;;;34.30;19.10
63306;BME280;50735;52.060;1.248;2022-07-18T11:29:12;101698.64;;;34.42;18.79
63306;BME280;50735;52.060;1.248;2022-07-18T11:31:44;101696.69;;;34.78;18.64
63306;BME280;50735;52.060;1.248;2022-07-18T11:34:11;101703.16;;;34.73;18.96
63306;BME280;50735;52.060;1.248;2022-07-18T11:36:39;101698.81;;;34.42;18.93
63306;BME280;50735;52.060;1.248;2022-07-18T11:39:07;101695.25;;;34.61;19.06
63306;BME280;50735;52.060;1.248;2022-07-18T11:41:36;101690.85;;;34.73;19.16
63306;BME280;50735;52.060;1.248;2022-07-18T11:44:04;101692.12;;;35.30;18.56
63306;BME280;50735;52.060;1.248;2022-07-18T11:46:31;101689.06;;;34.24;19.39
63306;BME280;50735;52.060;1.248;2022-07-18T11:49:00;101688.93;;;34.17;19.18
63306;BME280;50735;52.060;1.248;2022-07-18T11:51:34;101689.15;;;34.03;19.03
63306;BME280;50735;52.060;1.248;2022-07-18T11:54:02;101687.39;;;34.23;19.45
63306;BME280;50735;52.060;1.248;2022-07-18T11:56:29;101686.01;;;34.29;19.29
63306;BME280;50735;52.060;1.248;2022-07-18T11:58:57;101684.36;;;34.80;18.85
63306;BME280;50735;52.060;1.248;2022-07-18T12:01:30;101679.10;;;34.37;18.89
63306;BME280;50735;52.060;1.248;2022-07-18T12:03:57;101677.54;;;34.63;18.73
63306;BME280;50735;52.060;1.248;2022-07-18T12:06:25;101679.17;;;34.67;18.40
63306;BME280;50735;52.060;1.248;2022-07-18T12:08:53;101675.43;;;34.87;18.16
63306;BME280;50735;52.060;1.248;2022-07-18T12:11:26;101670.55;;;34.96;17.93
63306;BME280;50735;52.060;1.248;2022-07-18T12:13:55;101670.05;;;34.61;17.59
63306;BME280;50735;52.060;1.248;2022-07-18T12:16:25;101672.24;;;34.67;17.50
63306;BME280;50735;52.060;1.248;2022-07-18T12:18:53;101668.60;;;34.26;17.53
63306;BME280;50735;52.060;1.248;2022-07-18T12:21:21;101666.67;;;34.01;17.27
63306;BME280;50735;52.060;1.248;2022-07-18T12:23:48;101672.50;;;34.37;17.05
63306;BME280;50735;52.060;1.248;2022-07-18T12:26:32;101665.59;;;33.64;17.69
63306;BME280;50735;52.060;1.248;2022-07-18T12:29:08;101663.04;;;33.88;17.04
63306;BME280;50735;52.060;1.248;2022-07-18T12:31:39;101659.47;;;33.75;17.29
63306;BME280;50735;52.060;1.248;2022-07-18T12:34:08;101662.46;;;33.48;17.61
63306;BME280;50735;52.060;1.248;2022-07-18T12:36:50;101666.76;;;33.89;17.26
63306;BME280;50735;52.060;1.248;2022-07-18T12:39:26;101662.87;;;33.67;16.90
63306;BME280;50735;52.060;1.248;2022-07-18T12:41:52;101661.72;;;33.98;17.69
63306;BME280;50735;52.060;1.248;2022-07-18T12:44:20;101661.26;;;33.57;17.26
63306;BME280;50735;52.060;1.248;2022-07-18T12:46:47;101656.06;;;33.82;17.07
63306;BME280;50735;52.060;1.248;2022-07-18T12:49:14;101652.14;;;33.55;17.69
63306;BME280;50735;52.060;1.248;2022-07-18T12:51:42;101650.70;;;33.81;17.54
63306;BME280;50735;52.060;1.248;2022-07-18T12:54:09;101649.47;;;34.00;17.22
63306;BME280;50735;52.060;1.248;2022-07-18T12:56:36;101645.20;;;34.43;17.23
63306;BME280;50735;52.060;1.248;2022-07-18T12:59:03;101646.35;;;33.98;16.77